Time;durP1;ratioP1;P1;durP2;ratioP2;P2;SDS_P1;SDS_P2;PMS_P1;PMS_P2;Temp;Humidity;BMP_temperature;BMP_pressure;BME280_temperature;BME280_humidity;BME280_pressure;Samples;Min_cycle;Max_cycle;Signal;HPM_P1;HPM_P2
2022/12/20 00:00:09;;;;;;;24.80;11.57;;;;;;;-0.22;100.00;101309.47;4983375;28;20298;-74
2022/12/20 00:02:36;;;;;;;27.33;11.93;;;;;;;-0.22;100.00;101313.72;4979563;28;20289;-73
2022/12/20 00:05:03;;;;;;;25.27;11.70;;;;;;;-0.18;100.00;101314.69;4992883;28;20215;-74
2022/12/20 00:07:32;;;;;;;24.63;11.33;;;;;;;-0.25;100.00;101311.06;4983297;28;20210;-74
2022/12/20 00:09:58;;;;;;;28.60;11.93;;;;;;;-0.29;100.00;101299.00;4997307;28;20629;-73
2022/12/20 00:12:25;;;;;;;26.33;11.60;;;;;;;-0.32;100.00;101296.34;4982636;28;20236;-73
2022/12/20 00:14:51;;;;;;;25.67;11.00;;;;;;;-0.33;100.00;101295.47;4982942;28;20206;-74
2022/12/20 00:17:17;;;;;;;26.10;12.63;;;;;;;-0.33;100.00;101281.81;4980850;28;20223;-74
2022/12/20 00:19:44;;;;;;;24.77;12.47;;;;;;;-0.35;100.00;101275.75;4984291;28;20205;-73
2022/12/20 00:22:10;;;;;;;26.37;12.23;;;;;;;-0.37;100.00;101275.69;4983518;28;20788;-74
2022/12/20 00:24:38;;;;;;;25.40;11.67;;;;;;;-0.34;100.00;101270.66;4983891;28;20581;-74
2022/12/20 00:27:04;;;;;;;22.97;11.67;;;;;;;-0.27;100.00;101269.16;4980855;28;20206;-73
2022/12/20 00:29:31;;;;;;;27.80;11.47;;;;;;;-0.20;100.00;101263.38;4982600;28;20658;-74
2022/12/20 00:31:57;;;;;;;26.63;11.23;;;;;;;-0.13;100.00;101236.22;4983006;28;20692;-74
2022/12/20 00:34:24;;;;;;;21.30;11.53;;;;;;;-0.11;100.00;101244.81;4997665;28;20205;-74
2022/12/20 00:36:50;;;;;;;24.77;12.27;;;;;;;-0.06;100.00;101253.50;4981715;28;20676;-74
2022/12/20 00:39:16;;;;;;;23.93;11.53;;;;;;;0.00;100.00;101240.88;4998193;28;20198;-74
2022/12/20 00:41:44;;;;;;;28.33;12.77;;;;;;;0.02;100.00;101243.44;4982383;28;20252;-75
2022/12/20 00:44:13;;;;;;;23.43;12.90;;;;;;;0.05;100.00;101236.69;4993838;28;20232;-74
2022/12/20 00:46:39;;;;;;;22.90;12.43;;;;;;;0.09;100.00;101246.22;4980327;28;20205;-74
2022/12/20 00:49:06;;;;;;;26.60;12.93;;;;;;;0.09;100.00;101246.22;4998404;28;20201;-74
2022/12/20 00:51:32;;;;;;;27.10;13.60;;;;;;;0.12;100.00;101236.06;4983337;28;20230;-73
2022/12/20 00:53:59;;;;;;;27.40;13.17;;;;;;;0.16;100.00;101242.16;4998654;28;20209;-73
2022/12/20 00:56:25;;;;;;;24.83;12.90;;;;;;;0.18;100.00;101238.78;4984567;28;20205;-74
2022/12/20 00:58:53;;;;;;;24.90;13.30;;;;;;;0.22;100.00;101247.41;4982066;28;20569;-74
2022/12/20 01:01:22;;;;;;;26.13;12.83;;;;;;;0.21;100.00;101250.78;4982741;28;20246;-73
2022/12/20 01:03:49;;;;;;;21.67;11.87;;;;;;;0.20;100.00;101245.66;4980852;28;20221;-74
2022/12/20 01:06:15;;;;;;;24.37;11.87;;;;;;;0.24;100.00;101244.91;4982540;28;20203;-74
2022/12/20 01:08:41;;;;;;;23.13;11.07;;;;;;;0.24;100.00;101232.06;4982756;28;20561;-73
2022/12/20 01:11:12;;;;;;;20.37;11.90;;;;;;;0.26;100.00;101240.66;4979541;28;20593;-74
2022/12/20 01:13:42;;;;;;;30.67;12.63;;;;;;;0.27;100.00;101244.97;4999305;28;20579;-73
2022/12/20 01:16:13;;;;;;;25.70;11.77;;;;;;;0.27;100.00;101237.28;4993102;28;20210;-74
2022/12/20 01:18:40;;;;;;;23.90;11.93;;;;;;;0.29;100.00;101230.50;4981934;28;20204;-74
2022/12/20 01:21:08;;;;;;;25.23;11.97;;;;;;;0.31;100.00;101223.69;4987320;28;20223;-74
2022/12/20 01:23:35;;;;;;;25.63;11.87;;;;;;;0.33;100.00;101227.16;4985042;28;20224;-74
2022/12/20 01:26:03;;;;;;;24.77;12.40;;;;;;;0.35;100.00;101230.63;4983150;28;20219;-74
2022/12/20 01:28:30;;;;;;;23.90;12.37;;;;;;;0.34;100.00;101223.78;4983661;28;20208;-74
2022/12/20 01:30:56;;;;;;;25.03;12.43;;;;;;;0.35;100.00;101234.09;4980216;28;20216;-75
2022/12/20 01:33:24;;;;;;;23.97;11.90;;;;;;;0.34;100.00;101224.66;4997824;28;20216;-76
2022/12/20 01:35:58;;;;;;;28.10;12.70;;;;;;;0.33;100.00;101220.34;4996527;28;20761;-76
2022/12/20 01:38:25;;;;;;;25.33;12.00;;;;;;;0.35;100.00;101217.81;4980570;28;20212;-76
2022/12/20 01:40:52;;;;;;;20.63;11.40;;;;;;;0.34;100.00;101218.66;4996993;28;20197;-77
2022/12/20 01:43:19;;;;;;;23.73;12.37;;;;;;;0.33;100.00;101224.59;4981653;28;20304;-76
2022/12/20 01:45:46;;;;;;;23.60;12.23;;;;;;;0.33;100.00;101229.72;4981122;28;20216;-76
2022/12/20 01:48:16;;;;;;;22.20;11.50;;;;;;;0.31;100.00;101229.69;4982325;28;20244;-75
2022/12/20 01:50:44;;;;;;;23.23;11.07;;;;;;;0.34;100.00;101234.91;4981165;28;20301;-75
2022/12/20 01:53:11;;;;;;;23.40;11.53;;;;;;;0.35;100.00;101225.50;4981216;28;20202;-76
2022/12/20 01:55:38;;;;;;;25.27;11.07;;;;;;;0.37;100.00;101222.16;4997656;28;20220;-76
2022/12/20 01:58:06;;;;;;;21.40;11.70;;;;;;;0.39;100.00;101224.78;4979837;28;21361;-76
2022/12/20 02:00:33;;;;;;;25.57;11.80;;;;;;;0.44;100.00;101223.19;4997102;28;20413;-76
2022/12/20 02:03:04;;;;;;;23.03;10.47;;;;;;;0.44;100.00;101224.88;4978358;28;20223;-75
2022/12/20 02:05:35;;;;;;;24.00;11.90;;;;;;;0.46;100.00;101230.91;4980026;28;20289;-76
2022/12/20 02:08:04;;;;;;;27.47;13.10;;;;;;;0.46;100.00;101229.22;4981006;28;20209;-75
2022/12/20 02:10:41;;;;;;;24.70;11.77;;;;;;;0.43;100.00;101221.44;4981704;28;20197;-74
2022/12/20 02:13:17;;;;;;;26.77;12.43;;;;;;;0.44;100.00;101217.16;4979892;28;20236;-75
2022/12/20 02:15:51;;;;;;;21.20;11.60;;;;;;;0.47;100.00;101212.13;4976957;28;20200;-76
2022/12/20 02:18:23;;;;;;;23.37;11.73;;;;;;;0.47;100.00;101204.44;4978192;28;20582;-75
2022/12/20 02:21:26;;;;;;;23.97;12.30;;;;;;;0.44;100.00;101191.50;4976596;28;20818;-75
2022/12/20 02:24:48;;;;;;;23.70;11.40;;;;;;;0.41;100.00;101200.03;4978252;28;20644;-75
2022/12/20 02:27:40;;;;;;;23.20;11.57;;;;;;;0.41;100.00;101205.16;4992323;28;20215;-75
2022/12/20 02:30:19;;;;;;;23.97;11.70;;;;;;;0.41;100.00;101201.72;4977138;28;20213;-76
2022/12/20 02:32:56;;;;;;;20.03;10.77;;;;;;;0.40;100.00;101210.25;4988240;28;20590;-74
2022/12/20 02:35:25;;;;;;;25.73;12.50;;;;;;;0.43;100.00;101202.63;4976358;28;20335;-76
2022/12/20 02:37:54;;;;;;;22.47;11.90;;;;;;;0.38;100.00;101205.06;4978081;28;20551;-76
2022/12/20 02:40:24;;;;;;;21.83;11.30;;;;;;;0.36;100.00;101205.03;4993639;28;20252;-76
2022/12/20 02:42:55;;;;;;;25.97;12.67;;;;;;;0.33;100.00;101196.38;4977005;28;20676;-74
2022/12/20 02:45:26;;;;;;;20.57;11.57;;;;;;;0.29;100.00;101194.59;4993996;28;20473;-75
2022/12/20 02:47:57;;;;;;;20.83;11.30;;;;;;;0.23;100.00;101185.03;4977016;28;20212;-76
2022/12/20 02:50:27;;;;;;;23.90;11.90;;;;;;;0.22;100.00;101183.28;4992109;28;20212;-76
2022/12/20 02:52:54;;;;;;;25.73;12.50;;;;;;;0.18;100.00;101184.91;4976321;28;20229;-76
2022/12/20 02:55:29;;;;;;;24.17;12.10;;;;;;;0.18;100.00;101177.22;4976292;28;20266;-75
2022/12/20 02:58:01;;;;;;;25.37;11.67;;;;;;;0.16;100.00;101181.44;4977140;28;20206;-76
2022/12/20 03:00:33;;;;;;;22.03;10.77;;;;;;;0.23;100.00;101184.16;4997185;28;20205;-74
2022/12/20 03:05:48;;;;;;;27.67;12.47;;;;;;;0.22;100.00;101195.25;4981052;28;20935;-74
2022/12/20 03:08:17;;;;;;;24.07;11.43;;;;;;;0.18;100.00;101189.19;4995220;28;20288;-76
2022/12/20 03:10:44;;;;;;;20.73;11.37;;;;;;;0.16;100.00;101198.53;4981148;28;20229;-74
2022/12/20 03:13:11;;;;;;;22.90;11.33;;;;;;;0.12;100.00;101191.56;4994998;28;20219;-76
2022/12/20 03:15:46;;;;;;;24.53;11.97;;;;;;;0.12;100.00;101189.91;4994961;28;20207;-74
2022/12/20 03:18:13;;;;;;;23.33;11.73;;;;;;;0.07;100.00;101176.09;4979755;28;20724;-76
2022/12/20 03:20:39;;;;;;;22.90;11.90;;;;;;;0.04;100.00;101176.00;4995598;28;20197;-76
2022/12/20 03:23:06;;;;;;;23.43;12.27;;;;;;;0.02;100.00;101184.47;4993642;28;20749;-75
2022/12/20 03:25:33;;;;;;;21.27;11.83;;;;;;;0.00;100.00;101174.22;4980252;28;20677;-74
2022/12/20 03:28:00;;;;;;;23.90;12.03;;;;;;;0.00;100.00;101169.06;4979622;28;20264;-75
2022/12/20 03:30:28;;;;;;;25.93;11.80;;;;;;;-0.04;100.00;101162.13;4979123;28;20566;-75
2022/12/20 03:32:55;;;;;;;25.73;12.20;;;;;;;-0.02;100.00;101160.44;4981092;28;20253;-74
2022/12/20 03:35:23;;;;;;;22.87;11.57;;;;;;;-0.01;100.00;101160.50;4981972;28;20272;-75
2022/12/20 03:37:49;;;;;;;23.40;11.60;;;;;;;0.00;100.00;101169.06;4980715;28;20625;-74
2022/12/20 03:40:15;;;;;;;24.23;12.03;;;;;;;0.00;100.00;101158.81;4985019;28;20206;-75
2022/12/20 03:42:42;;;;;;;21.37;11.50;;;;;;;0.01;100.00;101160.53;4981011;28;20228;-75
2022/12/20 03:45:10;;;;;;;25.03;12.67;;;;;;;-0.04;100.00;101164.69;4979980;28;20317;-74
2022/12/20 03:47:36;;;;;;;23.90;11.70;;;;;;;-0.05;100.00;101173.22;4996349;28;20200;-74
2022/12/20 03:50:07;;;;;;;22.70;12.20;;;;;;;-0.03;100.00;101172.41;4995057;28;20780;-76
2022/12/20 03:52:35;;;;;;;25.07;11.70;;;;;;;-0.02;100.00;101169.03;4980402;28;20221;-76
2022/12/20 03:55:02;;;;;;;26.13;12.17;;;;;;;0.00;100.00;101166.50;4981018;28;20189;-75
2022/12/20 03:57:38;;;;;;;25.90;12.17;;;;;;;0.03;100.00;101164.00;4994465;28;20197;-76
2022/12/20 04:00:11;;;;;;;23.73;11.47;;;;;;;0.07;100.00;101162.38;4979710;28;20252;-76
2022/12/20 04:02:46;;;;;;;29.97;13.77;;;;;;;0.03;100.00;101166.56;4981340;28;20224;-75
2022/12/20 04:05:16;;;;;;;26.43;13.07;;;;;;;-0.03;100.00;101163.88;4995636;28;20296;-76
2022/12/20 04:07:44;;;;;;;25.40;12.43;;;;;;;-0.01;100.00;101160.50;4978335;28;20268;-74
2022/12/20 04:10:11;;;;;;;27.10;12.47;;;;;;;-0.02;100.00;101156.22;4978763;28;20440;-75
2022/12/20 04:12:38;;;;;;;28.83;13.57;;;;;;;-0.02;100.00;101169.03;4977252;28;20229;-75
2022/12/20 04:15:08;;;;;;;29.27;13.33;;;;;;;-0.01;100.00;101170.75;4978278;28;20205;-75
2022/12/20 04:17:35;;;;;;;30.60;12.60;;;;;;;-0.01;100.00;101160.50;4994921;28;20255;-75
2022/12/20 04:20:17;;;;;;;31.00;13.67;;;;;;;0.01;100.00;101162.25;4977234;28;20780;-75
2022/12/20 04:22:48;;;;;;;27.13;13.73;;;;;;;0.04;100.00;101167.47;4978096;28;20247;-76
2022/12/20 04:25:17;;;;;;;28.13;11.80;;;;;;;0.05;100.00;101167.47;4978580;28;20228;-76
2022/12/20 04:27:43;;;;;;;29.70;13.23;;;;;;;0.04;100.00;101170.88;4979511;28;20678;-75
2022/12/20 04:30:11;;;;;;;26.13;12.97;;;;;;;0.06;100.00;101182.03;4996154;28;20209;-75
2022/12/20 04:32:38;;;;;;;25.03;12.07;;;;;;;0.03;100.00;101173.41;4996124;28;20272;-76
2022/12/20 04:35:05;;;;;;;21.93;12.53;;;;;;;0.06;100.00;101174.34;4982803;28;21180;-76
2022/12/20 04:37:37;;;;;;;26.43;12.47;;;;;;;0.06;100.00;101173.50;4983675;28;20231;-75
2022/12/20 04:40:07;;;;;;;26.80;12.43;;;;;;;0.10;100.00;101171.03;4981489;28;20265;-75
2022/12/20 04:42:42;;;;;;;23.00;12.03;;;;;;;0.12;100.00;101158.25;4983285;28;20624;-75
2022/12/20 04:45:12;;;;;;;23.83;12.20;;;;;;;0.21;100.00;101158.47;4999307;28;20310;-76
2022/12/20 04:47:38;;;;;;;24.20;12.27;;;;;;;0.21;100.00;101167.88;4982682;28;20559;-76
2022/12/20 04:50:07;;;;;;;30.60;13.70;;;;;;;0.26;100.00;101159.44;4993858;28;20228;-75
2022/12/20 04:55:19;;;;;;;28.80;13.07;;;;;;;0.24;100.00;101162.81;4997161;28;20591;-75
2022/12/20 04:57:45;;;;;;;25.27;12.80;;;;;;;0.22;100.00;101162.78;4980255;28;20197;-75
2022/12/20 05:00:14;;;;;;;27.07;12.33;;;;;;;0.28;100.00;101162.94;4981984;28;20688;-76
2022/12/20 05:02:43;;;;;;;28.10;13.10;;;;;;;0.29;100.00;101158.66;4996762;28;20229;-75
2022/12/20 05:05:13;;;;;;;25.90;13.80;;;;;;;0.28;100.00;101156.94;4998729;28;20235;-75
2022/12/20 05:07:46;;;;;;;23.30;12.03;;;;;;;0.30;100.00;101155.25;4994090;28;20206;-75
2022/12/20 05:10:13;;;;;;;28.20;13.83;;;;;;;0.37;100.00;101158.03;4997985;28;20201;-75
2022/12/20 05:12:41;;;;;;;24.57;13.13;;;;;;;0.39;100.00;101165.75;5023799;22;20633;-68
2022/12/20 05:15:13;;;;;;;28.67;12.27;;;;;;;0.37;100.00;101160.59;4992794;28;20190;-68
2022/12/20 05:17:39;;;;;;;27.20;13.17;;;;;;;0.38;100.00;101162.31;4999520;28;20203;-69
2022/12/20 05:20:07;;;;;;;26.67;13.00;;;;;;;0.43;100.00;101156.44;4997964;28;20200;-68
2022/12/20 05:28:06;;;;;;;28.23;12.87;;;;;;;0.61;100.00;101159.44;4991448;28;20238;-69
2022/12/20 05:30:35;;;;;;;23.83;13.20;;;;;;;0.67;100.00;101166.38;4977468;28;20252;-69
2022/12/20 05:33:02;;;;;;;23.23;12.77;;;;;;;0.73;100.00;101169.13;4981727;28;20221;-69
2022/12/20 05:35:30;;;;;;;27.43;11.87;;;;;;;0.80;100.00;101170.13;4979773;28;20201;-69
2022/12/20 05:38:03;;;;;;;26.37;12.47;;;;;;;0.82;100.00;101164.19;4979073;28;20209;-69
2022/12/20 05:40:30;;;;;;;26.50;13.03;;;;;;;0.89;100.00;101160.91;4980335;28;20211;-69
2022/12/20 05:42:58;;;;;;;24.27;12.00;;;;;;;0.93;100.00;101161.84;4979106;28;20217;-69
2022/12/20 05:45:35;;;;;;;25.67;12.43;;;;;;;0.97;100.00;101157.63;4978337;28;20316;-69
2022/12/20 05:48:06;;;;;;;24.53;12.23;;;;;;;1.03;100.00;101162.94;4993748;28;20217;-69
2022/12/20 05:50:35;;;;;;;25.23;11.97;;;;;;;1.06;100.00;101169.00;4980318;28;20201;-69
2022/12/20 05:53:22;;;;;;;22.20;11.50;;;;;;;1.09;100.00;101157.91;4979919;28;20608;-70
2022/12/20 05:55:53;;;;;;;22.40;10.97;;;;;;;1.13;100.00;101163.16;4979761;28;20201;-68
2022/12/20 05:58:22;;;;;;;24.10;12.37;;;;;;;1.16;100.00;101166.63;4980296;28;20201;-68
2022/12/20 06:00:56;;;;;;;22.73;11.37;;;;;;;1.17;100.00;101169.22;4978022;28;20299;-68
2022/12/20 06:03:22;;;;;;;21.23;11.90;;;;;;;1.21;100.00;101175.28;4978082;28;20217;-69
2022/12/20 06:05:50;;;;;;;24.53;11.37;;;;;;;1.20;100.00;101169.28;4981201;28;20213;-69
2022/12/20 06:08:24;;;;;;;22.57;11.83;;;;;;;1.20;100.00;101161.59;4993529;28;20208;-68
2022/12/20 06:10:52;;;;;;;23.73;12.00;;;;;;;1.22;100.00;101165.03;4978175;28;20244;-69
2022/12/20 06:13:20;;;;;;;25.80;12.00;;;;;;;1.26;100.00;101158.25;4978666;28;20235;-69
2022/12/20 06:15:49;;;;;;;22.17;11.37;;;;;;;1.29;100.00;101151.50;4978960;28;20232;-69
2022/12/20 06:18:19;;;;;;;22.57;11.27;;;;;;;1.30;100.00;101145.53;4979782;28;20204;-69
2022/12/20 06:20:49;;;;;;;21.53;10.93;;;;;;;1.31;100.00;101149.81;5012231;28;20209;-69
2022/12/20 06:23:18;;;;;;;21.77;10.97;;;;;;;1.30;100.00;101160.06;4985157;28;20223;-69
2022/12/20 06:25:54;;;;;;;27.23;12.03;;;;;;;1.30;100.00;101153.22;4984002;28;20306;-69
2022/12/20 06:28:22;;;;;;;19.87;11.30;;;;;;;1.33;100.00;101149.84;4981105;28;20296;-69
2022/12/20 06:30:52;;;;;;;21.37;11.33;;;;;;;1.35;100.00;101147.31;4985040;28;20204;-69
2022/12/20 06:33:31;;;;;;;21.40;11.37;;;;;;;1.35;100.00;101143.03;4986148;28;20217;-69
2022/12/20 06:35:57;;;;;;;31.00;11.43;;;;;;;1.38;100.00;101144.81;4987398;28;20288;-69
2022/12/20 06:38:24;;;;;;;26.03;12.27;;;;;;;1.38;100.00;101147.38;4988374;28;20764;-69
2022/12/20 06:40:50;;;;;;;22.87;11.50;;;;;;;1.37;100.00;101137.94;4987567;28;20201;-69
2022/12/20 06:43:17;;;;;;;21.33;11.40;;;;;;;1.38;100.00;101140.53;4983693;28;20224;-69
2022/12/20 06:45:43;;;;;;;20.73;10.63;;;;;;;1.38;100.00;101144.81;4990560;28;20290;-68
2022/12/20 06:48:11;;;;;;;22.23;11.50;;;;;;;1.35;100.00;101139.59;5002648;28;20384;-69
2022/12/20 06:50:40;;;;;;;23.57;10.87;;;;;;;1.35;100.00;101144.75;5017556;28;20221;-69
2022/12/20 06:53:07;;;;;;;20.70;11.13;;;;;;;1.35;100.00;101148.16;5003892;28;20228;-69
2022/12/20 06:55:34;;;;;;;17.87;10.37;;;;;;;1.36;100.00;101156.75;4988475;28;20681;-69
2022/12/20 06:58:00;;;;;;;20.53;11.30;;;;;;;1.37;100.00;101143.06;4985760;28;20204;-69
2022/12/20 07:00:28;;;;;;;23.90;10.93;;;;;;;1.38;100.00;101147.38;5005539;28;20765;-69
2022/12/20 07:02:54;;;;;;;22.90;10.97;;;;;;;1.39;100.00;101155.13;4975678;28;20233;-69
2022/12/20 07:05:20;;;;;;;22.13;11.00;;;;;;;1.39;100.00;101147.41;4984754;28;20269;-69
2022/12/20 07:07:48;;;;;;;21.63;10.30;;;;;;;1.37;100.00;101143.91;4984329;28;20198;-69
2022/12/20 07:10:14;;;;;;;21.97;10.37;;;;;;;1.38;100.00;101158.50;4981401;28;20215;-69
2022/12/20 07:12:41;;;;;;;20.40;10.50;;;;;;;1.41;100.00;101162.88;4986392;28;20221;-69
2022/12/20 07:15:08;;;;;;;22.47;10.13;;;;;;;1.42;100.00;101149.16;4985667;28;20212;-69
2022/12/20 07:17:35;;;;;;;21.47;11.00;;;;;;;1.43;100.00;101153.47;4983281;28;20209;-69
2022/12/20 07:20:01;;;;;;;21.27;11.03;;;;;;;1.45;100.00;101156.94;4981018;28;20770;-69
2022/12/20 07:22:27;;;;;;;23.57;12.20;;;;;;;1.44;100.00;101153.50;4981193;28;20292;-69
2022/12/20 07:24:55;;;;;;;19.63;10.93;;;;;;;1.45;100.00;101152.66;4982238;28;20229;-69
2022/12/20 07:27:21;;;;;;;19.93;9.87;;;;;;;1.46;100.00;101148.38;4982471;28;20209;-69
2022/12/20 07:29:48;;;;;;;25.53;12.50;;;;;;;1.46;100.00;101145.81;4983521;28;20693;-69
2022/12/20 07:32:14;;;;;;;30.53;14.50;;;;;;;1.48;100.00;101145.00;4983319;28;20743;-69
2022/12/20 07:34:41;;;;;;;23.03;12.40;;;;;;;1.49;100.00;101135.59;4989525;28;20194;-67
2022/12/20 07:37:08;;;;;;;29.67;14.90;;;;;;;1.52;100.00;101146.78;4983062;28;20799;-69
2022/12/20 07:39:34;;;;;;;22.03;11.27;;;;;;;1.50;100.00;101152.75;4991092;28;20207;-69
2022/12/20 07:42:02;;;;;;;20.43;11.57;;;;;;;1.52;100.00;101153.66;4983786;28;20221;-68
2022/12/20 07:44:37;;;;;;;22.97;11.50;;;;;;;1.52;100.00;101153.66;4984981;28;20213;-69
2022/12/20 07:47:03;;;;;;;22.23;11.17;;;;;;;1.51;100.00;101151.91;4984919;28;20284;-67
2022/12/20 07:49:30;;;;;;;20.83;10.43;;;;;;;1.54;100.00;101151.13;4986162;28;20211;-68
2022/12/20 07:52:00;;;;;;;22.70;10.90;;;;;;;1.55;100.00;101142.53;4982613;28;20221;-69
2022/12/20 07:54:29;;;;;;;22.50;11.00;;;;;;;1.54;100.00;101148.53;4983386;28;20204;-68
2022/12/20 07:56:59;;;;;;;23.07;11.37;;;;;;;1.56;100.00;101144.28;4991717;28;20216;-69
2022/12/20 07:59:33;;;;;;;20.93;11.63;;;;;;;1.55;100.00;101143.44;5004379;28;20621;-69
2022/12/20 08:02:00;;;;;;;23.47;11.50;;;;;;;1.56;100.00;101144.28;4998052;28;20629;-69
2022/12/20 08:04:29;;;;;;;23.10;10.80;;;;;;;1.57;100.00;101146.03;4989369;28;20493;-69
2022/12/20 08:06:58;;;;;;;23.80;11.37;;;;;;;1.57;100.00;101154.59;4994311;28;20699;-68
2022/12/20 08:09:27;;;;;;;24.17;11.33;;;;;;;1.58;100.00;101156.31;4993742;28;20202;-69
2022/12/20 08:11:54;;;;;;;19.13;10.37;;;;;;;1.60;100.00;101148.66;4993376;28;20617;-69
2022/12/20 08:14:21;;;;;;;19.47;10.80;;;;;;;1.62;100.00;101152.09;5010594;28;20632;-69
2022/12/20 08:16:49;;;;;;;21.37;10.50;;;;;;;1.63;100.00;101146.13;4994514;28;20224;-69
2022/12/20 08:19:16;;;;;;;21.30;10.90;;;;;;;1.64;100.00;101138.47;4995315;28;20582;-69
2022/12/20 08:21:42;;;;;;;18.20;10.30;;;;;;;1.65;100.00;101147.91;4999786;28;20234;-68
2022/12/20 08:24:08;;;;;;;20.23;10.83;;;;;;;1.68;100.00;101136.81;4994727;28;20211;-69
2022/12/20 08:26:37;;;;;;;20.87;10.43;;;;;;;1.72;100.00;101138.59;5000857;28;20216;-68
2022/12/20 08:29:04;;;;;;;20.90;10.30;;;;;;;1.74;100.00;101142.03;5000115;28;20204;-69
2022/12/20 08:31:30;;;;;;;20.00;10.67;;;;;;;1.80;100.00;101146.47;5000689;28;20201;-69
2022/12/20 08:33:58;;;;;;;21.07;11.53;;;;;;;1.81;100.00;101143.91;4997055;28;20558;-68
2022/12/20 08:36:24;;;;;;;24.47;12.50;;;;;;;1.81;100.00;101143.03;4997551;28;20677;-69
2022/12/20 08:38:50;;;;;;;20.73;11.43;;;;;;;1.83;100.00;101151.63;4985080;28;20201;-67
2022/12/20 08:41:17;;;;;;;27.73;11.47;;;;;;;1.84;100.00;101156.81;4994711;28;20193;-68
2022/12/20 08:43:45;;;;;;;21.37;11.63;;;;;;;1.85;100.00;101161.13;4996588;28;20589;-69
2022/12/20 08:46:12;;;;;;;23.80;11.47;;;;;;;1.86;100.00;101161.97;4998643;28;20216;-68
2022/12/20 08:48:39;;;;;;;20.07;10.33;;;;;;;1.89;100.00;101162.06;4997483;28;20204;-68
2022/12/20 08:51:09;;;;;;;20.33;10.80;;;;;;;1.91;100.00;101160.38;4995091;28;20283;-67
2022/12/20 08:53:36;;;;;;;20.23;11.90;;;;;;;1.92;100.00;101167.25;4994716;28;20231;-68
2022/12/20 08:56:05;;;;;;;26.07;13.27;;;;;;;1.92;100.00;101179.22;5013023;28;20215;-69
2022/12/20 08:58:31;;;;;;;31.67;14.20;;;;;;;1.95;100.00;101169.84;5002217;28;20316;-69
2022/12/20 09:00:59;;;;;;;23.57;12.07;;;;;;;2.00;100.00;101170.81;4998549;28;20547;-69
2022/12/20 09:03:25;;;;;;;25.80;12.30;;;;;;;2.01;100.00;101180.28;4996063;28;20232;-69
2022/12/20 09:05:52;;;;;;;23.70;11.47;;;;;;;2.02;100.00;101179.44;4997007;28;20210;-68
2022/12/20 09:08:19;;;;;;;25.03;12.83;;;;;;;2.06;100.00;101164.94;4998771;28;20472;-68
2022/12/20 09:10:46;;;;;;;19.03;10.83;;;;;;;2.10;100.00;101161.56;4994684;28;20216;-69
2022/12/20 09:13:12;;;;;;;21.30;11.60;;;;;;;2.14;100.00;101163.34;4995839;28;20243;-69
2022/12/20 09:15:38;;;;;;;26.00;12.30;;;;;;;2.18;100.00;101166.81;4995572;28;20212;-69
2022/12/20 09:18:05;;;;;;;21.37;11.53;;;;;;;2.17;100.00;101165.13;4997527;28;20205;-67
2022/12/20 09:20:32;;;;;;;26.33;13.80;;;;;;;2.14;100.00;101160.75;4996017;28;20208;-69
2022/12/20 09:22:59;;;;;;;20.77;11.03;;;;;;;2.12;100.00;101151.31;4994911;28;20255;-69
2022/12/20 09:25:27;;;;;;;31.63;15.33;;;;;;;2.12;100.00;101162.44;4997218;28;20235;-69
2022/12/20 09:27:55;;;;;;;30.27;13.50;;;;;;;2.11;100.00;101154.69;4994775;28;20201;-68
2022/12/20 09:30:22;;;;;;;24.97;12.27;;;;;;;2.12;100.00;101171.88;4997472;28;20203;-68
2022/12/20 09:32:48;;;;;;;25.60;12.23;;;;;;;2.08;100.00;101166.69;4999245;28;20251;-69
2022/12/20 09:35:15;;;;;;;24.27;11.97;;;;;;;2.10;100.00;101160.72;4995091;28;20243;-69
2022/12/20 09:37:41;;;;;;;22.50;11.40;;;;;;;2.08;100.00;101179.53;5005736;28;20751;-69
2022/12/20 09:40:16;;;;;;;23.00;11.27;;;;;;;2.13;100.00;101171.03;4996325;28;20687;-69
2022/12/20 09:42:45;;;;;;;24.00;12.00;;;;;;;2.15;100.00;101166.78;4995693;28;20241;-69
2022/12/20 09:45:22;;;;;;;19.47;10.90;;;;;;;2.17;100.00;101168.53;4995713;28;20231;-68
2022/12/20 09:47:48;;;;;;;30.70;13.13;;;;;;;2.20;100.00;101172.84;4998886;28;20235;-68
2022/12/20 09:50:17;;;;;;;21.80;11.00;;;;;;;2.22;100.00;101173.78;4993681;28;20232;-68
2022/12/20 09:52:59;;;;;;;23.03;11.30;;;;;;;2.26;100.00;101162.69;4992984;28;20290;-69
2022/12/20 09:55:34;;;;;;;25.20;12.53;;;;;;;2.34;100.00;101166.25;4988976;28;20229;-68
2022/12/20 09:58:26;;;;;;;24.33;12.83;;;;;;;2.41;100.00;101164.63;4992977;28;20673;-68
2022/12/20 10:00:52;;;;;;;24.87;12.33;;;;;;;2.46;100.00;101163.88;4997216;28;20228;-69
2022/12/20 10:03:22;;;;;;;20.13;10.50;;;;;;;2.50;100.00;101159.66;4994026;28;20251;-69
2022/12/20 10:05:51;;;;;;;24.07;11.53;;;;;;;2.57;100.00;101155.44;4997554;28;20994;-68
2022/12/20 10:08:37;;;;;;;20.17;11.53;;;;;;;2.59;100.00;101152.06;4994716;28;20200;-69
2022/12/20 10:11:12;;;;;;;20.00;11.77;;;;;;;2.58;100.00;101145.16;4990592;28;20266;-69
2022/12/20 10:13:51;;;;;;;24.57;11.63;;;;;;;2.58;100.00;101162.31;4997791;28;20247;-69
2022/12/20 10:16:32;;;;;;;20.90;11.87;;;;;;;2.54;100.00;101169.13;4999874;28;20201;-69
2022/12/20 10:19:13;;;;;;;24.03;11.20;;;;;;;2.52;100.00;101163.09;5009553;28;20210;-68
2022/12/20 10:21:47;;;;;;;21.80;11.57;;;;;;;2.52;100.00;101151.94;4998259;28;20212;-68
2022/12/20 10:24:17;;;;;;;22.83;11.87;;;;;;;2.50;100.00;101143.31;4994847;28;20231;-69
2022/12/20 10:26:45;;;;;;;22.10;11.50;;;;;;;2.47;100.00;101141.56;4992848;28;20250;-69
2022/12/20 10:29:13;;;;;;;19.83;10.53;;;;;;;2.47;100.00;101139.00;4994222;28;20201;-69
2022/12/20 10:31:40;;;;;;;21.63;10.43;;;;;;;2.42;100.00;101131.19;4997775;28;20224;-69
2022/12/20 10:34:07;;;;;;;21.87;11.83;;;;;;;2.36;100.00;101137.97;4994414;28;20704;-69
2022/12/20 10:36:36;;;;;;;20.57;11.07;;;;;;;2.33;100.00;101132.78;5000089;28;20201;-68
2022/12/20 10:39:05;;;;;;;22.87;11.60;;;;;;;2.27;100.00;101131.84;4995126;28;20681;-69
2022/12/20 10:41:47;;;;;;;20.30;11.23;;;;;;;2.24;100.00;101118.91;4997718;28;20204;-68
2022/12/20 10:44:23;;;;;;;22.77;11.43;;;;;;;2.22;100.00;101123.16;4996957;28;20197;-68
2022/12/20 10:46:53;;;;;;;21.93;11.27;;;;;;;2.21;100.00;101129.16;4996886;28;20252;-68
2022/12/20 10:49:29;;;;;;;27.23;12.37;;;;;;;2.24;100.00;101124.06;4995937;28;20514;-68
2022/12/20 10:51:59;;;;;;;24.80;11.80;;;;;;;2.26;100.00;101124.94;4997984;28;20217;-69
2022/12/20 10:54:30;;;;;;;24.50;12.33;;;;;;;2.28;100.00;101122.41;4994444;28;20240;-69
2022/12/20 10:56:59;;;;;;;21.23;12.27;;;;;;;2.27;100.00;101124.13;5010636;28;20292;-68
2022/12/20 10:59:33;;;;;;;25.03;12.17;;;;;;;2.26;100.00;101106.06;4995829;28;20240;-69
2022/12/20 11:02:00;;;;;;;21.17;11.13;;;;;;;2.24;100.00;101092.31;4993061;28;20517;-69
2022/12/20 11:04:31;;;;;;;22.50;11.90;;;;;;;2.25;100.00;101094.03;4997434;28;20612;-69
2022/12/20 11:06:58;;;;;;;24.70;12.20;;;;;;;2.25;100.00;101087.19;4995799;28;20386;-68
2022/12/20 11:09:28;;;;;;;27.87;12.10;;;;;;;2.27;100.00;101090.66;4995453;28;20202;-67
2022/12/20 11:12:00;;;;;;;26.47;12.60;;;;;;;2.31;100.00;101083.84;4996598;28;20256;-69
2022/12/20 11:14:30;;;;;;;28.57;12.57;;;;;;;2.34;100.00;101073.63;5009879;28;20220;-69
2022/12/20 11:16:59;;;;;;;25.23;11.13;;;;;;;2.36;100.00;101081.34;4992855;28;20196;-68
2022/12/20 11:20:04;;;;;;;26.67;11.57;;;;;;;2.36;100.00;101077.06;4996396;28;20219;-69
2022/12/20 11:22:45;;;;;;;27.80;13.27;;;;;;;2.39;100.00;101071.97;4995286;28;20236;-68
2022/12/20 11:25:32;;;;;;;23.37;11.47;;;;;;;2.43;100.00;101063.44;4982607;28;20204;-68
2022/12/20 11:28:20;;;;;;;27.10;12.07;;;;;;;2.48;100.00;101055.78;4998723;28;20239;-68
2022/12/20 11:30:57;;;;;;;31.73;13.20;;;;;;;2.54;100.00;101050.72;4996952;28;20209;-69